Time;durP1;ratioP1;P1;durP2;ratioP2;P2;SDS_P1;SDS_P2;PMS_P1;PMS_P2;Temp;Humidity;BMP_temperature;BMP_pressure;BME280_temperature;BME280_humidity;BME280_pressure;Samples;Min_cycle;Max_cycle;Signal;HPM_P1;HPM_P2
2021/08/27 00:01:56;;;;;;;;;;;;;;;;;;;;;
2021/08/27 00:04:39;;;;;;;6.82;1.00;;;;;;;;;;4344895;33;20173;-80
2021/08/27 00:07:10;;;;;;;2.83;1.00;;;;;;;;;;4344092;33;20159;-80
2021/08/27 00:09:35;;;;;;;6.45;1.30;;;;;;;;;;4344684;33;20191;-80
2021/08/27 00:12:01;;;;;;;8.88;1.20;;;;;;;;;;4344508;33;20159;-80
2021/08/27 00:14:27;;;;;;;6.75;1.20;;;;;;;;;;4344518;33;20588;-80
2021/08/27 00:16:52;;;;;;;7.35;1.23;;;;;;;;;;4343703;33;20239;-79
2021/08/27 00:19:18;;;;;;;6.87;1.27;;;;;;;;;;4344406;33;20163;-80
2021/08/27 00:22:03;;;;;;;6.05;1.27;;;;;;;;;;4343935;33;20171;-79
2021/08/27 00:24:36;;;;;;;6.78;1.50;;;;;;;;;;4345001;33;20127;-80
2021/08/27 00:27:24;;;;;;;4.78;1.05;;;;;;;;;;4344277;33;20159;-80
2021/08/27 00:29:49;;;;;;;4.72;1.05;;;;;;;;;;4329203;33;20175;-80
2021/08/27 00:32:15;;;;;;;4.00;1.00;;;;;;;;;;4353138;32;20206;-80
2021/08/27 00:35:04;;;;;;;7.25;1.00;;;;;;;;;;4361934;32;20642;-80
2021/08/27 00:37:26;;;;;;;5.75;1.08;;;;;;;;;;4374347;32;20210;-79
2021/08/27 00:39:51;;;;;;;7.32;1.20;;;;;;;;;;4362153;32;20159;-80
2021/08/27 00:42:25;;;;;;;7.53;1.25;;;;;;;;;;4362102;32;20201;-80
2021/08/27 00:45:11;;;;;;;9.48;1.00;;;;;;;;;;4376418;32;20173;-80
2021/08/27 00:47:44;;;;;;;5.68;1.20;;;;;;;;;;4374784;32;20201;-80
2021/08/27 00:50:10;;;;;;;4.50;1.00;;;;;;;;;;4362847;32;20174;-80
2021/08/27 00:52:36;;;;;;;7.18;1.20;;;;;;;;;;4361379;32;20213;-79
2021/08/27 00:55:02;;;;;;;4.78;1.10;;;;;;;;;;4374128;32;20167;-79
2021/08/27 00:57:37;;;;;;;;;;;;;;;;;;;;;
2021/08/27 01:00:23;;;;;;;10.35;1.33;;;;;;;;;;4375737;32;20173;-80
2021/08/27 01:02:53;;;;;;;6.07;1.00;;;;;;;;;;4375128;32;20171;-80
2021/08/27 01:05:18;;;;;;;10.57;1.23;;;;;;;;;;4374577;32;20204;-80
2021/08/27 01:08:13;;;;;;;6.12;1.00;;;;;;;;;;4361531;32;20595;-80
2021/08/27 01:10:46;;;;;;;8.82;1.33;;;;;;;;;;4350927;32;20163;-80
2021/08/27 01:13:40;;;;;;;7.20;1.20;;;;;;;;;;4362227;32;20151;-80
2021/08/27 01:16:14;;;;;;;4.93;1.10;;;;;;;;;;4351985;32;20217;-80
2021/08/27 01:19:01;;;;;;;4.85;1.02;;;;;;;;;;4361463;32;20159;-80
2021/08/27 01:24:50;;;;;;;5.35;1.20;;;;;;;;;;4329262;33;20266;-79
2021/08/27 01:27:26;;;;;;;6.90;1.20;;;;;;;;;;4322633;32;20249;-79
2021/08/27 01:33:01;;;;;;;3.25;1.05;;;;;;;;;;4375318;32;20133;-79
2021/08/27 01:35:57;;;;;;;6.00;1.42;;;;;;;;;;4375600;32;20567;-80
2021/08/27 01:38:39;;;;;;;6.18;1.23;;;;;;;;;;4373826;32;20162;-80
2021/08/27 01:41:09;;;;;;;6.32;1.02;;;;;;;;;;4361854;32;20189;-80
2021/08/27 01:43:41;;;;;;;4.60;1.05;;;;;;;;;;4361298;32;20162;-80
2021/08/27 01:46:08;;;;;;;5.80;1.20;;;;;;;;;;4374377;32;20216;-80
2021/08/27 01:48:34;;;;;;;8.20;1.00;;;;;;;;;;4373690;32;20166;-80
2021/08/27 01:51:05;;;;;;;6.78;1.00;;;;;;;;;;4373662;32;20232;-80
2021/08/27 01:56:41;;;;;;;8.43;1.40;;;;;;;;;;4328637;33;20280;-79
2021/08/27 01:59:07;;;;;;;8.95;1.55;;;;;;;;;;4361867;32;20530;-79
2021/08/27 02:01:53;;;;;;;10.27;1.30;;;;;;;;;;4373373;32;20179;-79
2021/08/27 02:07:36;;;;;;;6.68;1.10;;;;;;;;;;4330112;33;20220;-79
2021/08/27 02:13:14;;;;;;;6.12;1.00;;;;;;;;;;4345506;33;20159;-79
2021/08/27 02:16:25;;;;;;;6.57;1.15;;;;;;;;;;4376678;32;20281;-80
2021/08/27 02:19:00;;;;;;;6.43;1.30;;;;;;;;;;4376909;32;20453;-79
2021/08/27 02:21:53;;;;;;;8.10;1.30;;;;;;;;;;4376701;32;20204;-79
2021/08/27 02:28:02;;;;;;;5.80;1.20;;;;;;;;;;4331313;33;20146;-79
2021/08/27 02:30:43;;;;;;;6.57;1.08;;;;;;;;;;4330815;33;20136;-80
2021/08/27 02:33:19;;;;;;;9.30;1.10;;;;;;;;;;4355498;32;20200;-80
2021/08/27 02:35:48;;;;;;;8.02;1.30;;;;;;;;;;4377022;32;20162;-79
2021/08/27 02:38:30;;;;;;;8.98;1.30;;;;;;;;;;4363455;32;20151;-80
2021/08/27 02:40:55;;;;;;;5.05;1.30;;;;;;;;;;4364035;32;20147;-80
2021/08/27 02:43:21;;;;;;;6.47;1.30;;;;;;;;;;4363677;32;20151;-79
2021/08/27 02:45:53;;;;;;;4.47;1.12;;;;;;;;;;4365263;32;20445;-80
2021/08/27 02:48:35;;;;;;;7.28;1.30;;;;;;;;;;4363732;32;20234;-79
2021/08/27 02:51:04;;;;;;;10.70;1.62;;;;;;;;;;4363801;32;20495;-80
2021/08/27 02:53:32;;;;;;;8.90;1.50;;;;;;;;;;4363501;32;20236;-79
2021/08/27 02:56:06;;;;;;;5.85;1.15;;;;;;;;;;4363397;32;20154;-80
2021/08/27 02:59:17;;;;;;;4.95;1.17;;;;;;;;;;4376032;32;20159;-79
2021/08/27 03:01:36;;;;;;;6.72;1.12;;;;;;;;;;4370876;32;20515;-79
2021/08/27 03:04:31;;;;;;;4.57;1.00;;;;;;;;;;4376288;32;20150;-80
2021/08/27 03:07:05;;;;;;;6.22;1.02;;;;;;;;;;4363728;32;20198;-79
2021/08/27 03:09:32;;;;;;;2.45;1.10;;;;;;;;;;4375235;32;20277;-80
2021/08/27 03:12:04;;;;;;;4.05;1.10;;;;;;;;;;4376042;32;20254;-79
2021/08/27 03:15:14;;;;;;;;;;;;;;;;;;;;;
2021/08/27 03:18:00;;;;;;;5.65;0.98;;;;;;;;;;4377418;32;20143;-79
2021/08/27 03:20:51;;;;;;;4.75;1.20;;;;;;;;;;4362916;32;20159;-80
2021/08/27 03:23:21;;;;;;;5.97;1.20;;;;;;;;;;4375503;32;20619;-79
2021/08/27 03:25:47;;;;;;;4.10;1.00;;;;;;;;;;4363110;32;20244;-79
2021/08/27 03:28:37;;;;;;;5.25;1.30;;;;;;;;;;4375440;32;20163;-80
2021/08/27 03:31:02;;;;;;;4.95;1.15;;;;;;;;;;4375332;32;20159;-80
2021/08/27 03:33:39;;;;;;;9.63;1.73;;;;;;;;;;4375282;32;20182;-79
2021/08/27 03:36:04;;;;;;;5.12;1.10;;;;;;;;;;4363006;32;20241;-80
2021/08/27 03:39:08;;;;;;;6.10;1.00;;;;;;;;;;4375465;32;20162;-79
2021/08/27 03:41:35;;;;;;;10.93;1.25;;;;;;;;;;4374317;32;20174;-79
2021/08/27 03:46:45;;;;;;;3.67;1.00;;;;;;;;;;4376826;32;20149;-79
2021/08/27 03:49:25;;;;;;;4.95;0.98;;;;;;;;;;4363213;32;20166;-80
2021/08/27 03:51:51;;;;;;;4.82;1.00;;;;;;;;;;4376501;32;20139;-79
2021/08/27 03:54:47;;;;;;;5.25;1.00;;;;;;;;;;4363005;32;20167;-80
2021/08/27 04:00:05;;;;;;;;;;;;;;;;;;;;;
2021/08/27 04:02:37;;;;;;;4.75;1.00;;;;;;;;;;4375973;32;20163;-80
2021/08/27 04:05:19;;;;;;;6.25;1.00;;;;;;;;;;4362948;32;20205;-80
2021/08/27 04:07:52;;;;;;;4.20;1.30;;;;;;;;;;4376459;32;20130;-79
2021/08/27 04:10:28;;;;;;;7.95;1.12;;;;;;;;;;4363496;32;20147;-80
2021/08/27 04:13:12;;;;;;;5.97;1.17;;;;;;;;;;4362341;32;20170;-79
2021/08/27 04:15:40;;;;;;;6.60;1.30;;;;;;;;;;4375104;32;20173;-78
2021/08/27 04:18:07;;;;;;;5.87;1.30;;;;;;;;;;4362691;32;20155;-78
2021/08/27 04:20:38;;;;;;;3.85;1.12;;;;;;;;;;4362734;32;20178;-79
2021/08/27 04:23:03;;;;;;;4.80;1.00;;;;;;;;;;4362168;32;20155;-79
2021/08/27 04:32:14;;;;;;;2.97;0.98;;;;;;;;;;4344679;33;20185;-79
2021/08/27 04:35:00;;;;;;;3.20;0.80;;;;;;;;;;4344064;33;20140;-80
2021/08/27 04:37:26;;;;;;;3.35;0.90;;;;;;;;;;4344173;33;20167;-79
2021/08/27 04:39:51;;;;;;;6.90;1.30;;;;;;;;;;4331844;33;20718;-79
2021/08/27 04:42:20;;;;;;;4.60;1.12;;;;;;;;;;4344741;32;20163;-79
2021/08/27 04:44:52;;;;;;;12.23;1.30;;;;;;;;;;4374443;32;20545;-79
2021/08/27 04:47:39;;;;;;;5.82;1.17;;;;;;;;;;4362568;32;20193;-79
2021/08/27 04:50:04;;;;;;;3.37;0.90;;;;;;;;;;4375612;32;20169;-80
2021/08/27 04:52:29;;;;;;;7.97;1.23;;;;;;;;;;4361890;32;20610;-80
2021/08/27 04:54:54;;;;;;;4.22;1.00;;;;;;;;;;4375249;32;20147;-79
2021/08/27 04:57:20;;;;;;;4.50;1.00;;;;;;;;;;4361970;32;20162;-80
2021/08/27 04:59:46;;;;;;;5.18;1.08;;;;;;;;;;4362193;32;20224;-80
2021/08/27 05:02:11;;;;;;;3.97;0.93;;;;;;;;;;4373891;32;20163;-79
2021/08/27 05:04:36;;;;;;;4.28;1.10;;;;;;;;;;4374087;32;20547;-79
2021/08/27 05:07:02;;;;;;;5.25;1.45;;;;;;;;;;4361864;32;20186;-79
2021/08/27 05:09:27;;;;;;;4.87;0.90;;;;;;;;;;4375616;32;20226;-79
2021/08/27 05:12:04;;;;;;;5.53;1.30;;;;;;;;;;4361429;32;20174;-80
2021/08/27 05:14:29;;;;;;;5.18;1.50;;;;;;;;;;4360775;32;20166;-79
2021/08/27 05:17:03;;;;;;;4.87;1.30;;;;;;;;;;4374943;32;20135;-79
2021/08/27 05:19:28;;;;;;;3.35;0.95;;;;;;;;;;4373747;32;20220;-81
2021/08/27 05:21:54;;;;;;;5.00;1.33;;;;;;;;;;4375394;32;20210;-81
2021/08/27 05:24:19;;;;;;;3.67;1.23;;;;;;;;;;4375601;32;20549;-80
2021/08/27 05:26:45;;;;;;;8.90;1.58;;;;;;;;;;4375798;32;20142;-80
2021/08/27 05:29:17;;;;;;;4.07;1.23;;;;;;;;;;4361549;32;20167;-80
2021/08/27 05:31:43;;;;;;;5.03;1.12;;;;;;;;;;4361529;32;20292;-80
2021/08/27 05:34:08;;;;;;;6.40;1.23;;;;;;;;;;4361215;32;20611;-80
2021/08/27 05:36:36;;;;;;;4.07;1.50;;;;;;;;;;4361490;32;20491;-81
2021/08/27 05:39:02;;;;;;;3.45;1.00;;;;;;;;;;4361804;32;20158;-81
2021/08/27 05:41:27;;;;;;;3.05;1.20;;;;;;;;;;4374119;32;20171;-80
2021/08/27 05:43:53;;;;;;;5.20;1.20;;;;;;;;;;4364517;32;20178;-80
2021/08/27 05:46:18;;;;;;;7.37;1.20;;;;;;;;;;4368266;32;20523;-79
2021/08/27 05:48:43;;;;;;;7.12;1.50;;;;;;;;;;4362052;33;20185;-80
2021/08/27 05:51:19;;;;;;;6.62;1.40;;;;;;;;;;4361711;32;20205;-79
2021/08/27 05:53:45;;;;;;;4.45;1.30;;;;;;;;;;4363466;32;20560;-79
2021/08/27 05:56:15;;;;;;;5.60;1.27;;;;;;;;;;4362765;32;20169;-80
2021/08/27 05:58:40;;;;;;;3.40;1.23;;;;;;;;;;4362021;32;20201;-79
2021/08/27 06:01:07;;;;;;;7.37;1.10;;;;;;;;;;4348361;33;20206;-80
2021/08/27 06:03:32;;;;;;;4.50;1.12;;;;;;;;;;4363298;32;20434;-80
2021/08/27 06:05:57;;;;;;;3.92;1.20;;;;;;;;;;4363209;32;20231;-80
2021/08/27 06:08:23;;;;;;;7.40;1.50;;;;;;;;;;4362252;32;20205;-80
2021/08/27 06:10:48;;;;;;;4.93;1.20;;;;;;;;;;4362160;32;20186;-79
2021/08/27 06:13:32;;;;;;;;;;;;;;;;;;;;;
2021/08/27 06:15:59;;;;;;;5.05;1.12;;;;;;;;;;4363251;32;20464;-79
2021/08/27 06:18:24;;;;;;;5.70;1.23;;;;;;;;;;4361832;32;20569;-78
2021/08/27 06:20:53;;;;;;;3.92;1.20;;;;;;;;;;4361634;32;20162;-79
2021/08/27 06:23:19;;;;;;;4.32;1.10;;;;;;;;;;4349019;33;20187;-79
2021/08/27 06:26:30;;;;;;;;;;;;;;;;;;;;;
2021/08/27 06:29:05;;;;;;;5.32;1.10;;;;;;;;;;4288131;33;20156;-80
2021/08/27 06:31:33;;;;;;;5.68;1.20;;;;;;;;;;4355924;32;20277;-80
2021/08/27 06:33:59;;;;;;;4.00;1.00;;;;;;;;;;4348765;33;20158;-79
2021/08/27 06:36:27;;;;;;;4.60;1.35;;;;;;;;;;4357102;33;20532;-80
2021/08/27 06:38:58;;;;;;;2.83;0.90;;;;;;;;;;4356506;32;20162;-79
2021/08/27 06:41:32;;;;;;;3.45;1.23;;;;;;;;;;4343557;33;20185;-80
2021/08/27 06:43:57;;;;;;;3.62;1.30;;;;;;;;;;4339738;33;20186;-80
2021/08/27 06:46:28;;;;;;;3.58;1.23;;;;;;;;;;4343962;33;20167;-78
2021/08/27 06:48:59;;;;;;;7.30;1.50;;;;;;;;;;4362611;32;20158;-79
2021/08/27 06:51:26;;;;;;;4.68;1.02;;;;;;;;;;4357110;32;20171;-78
2021/08/27 06:53:54;;;;;;;5.50;1.02;;;;;;;;;;4348407;33;20182;-79
2021/08/27 06:56:23;;;;;;;5.65;1.20;;;;;;;;;;4348626;33;20159;-79
2021/08/27 06:58:54;;;;;;;4.10;1.10;;;;;;;;;;4362404;32;20140;-78
2021/08/27 07:01:26;;;;;;;5.40;1.10;;;;;;;;;;4370972;32;20155;-79
2021/08/27 07:03:56;;;;;;;3.75;0.85;;;;;;;;;;4362472;32;20205;-79
2021/08/27 07:06:24;;;;;;;4.78;1.25;;;;;;;;;;4357152;33;20159;-80
2021/08/27 07:08:59;;;;;;;3.55;1.00;;;;;;;;;;4359685;32;20147;-79
2021/08/27 07:11:27;;;;;;;6.20;1.08;;;;;;;;;;4360390;32;20159;-80
2021/08/27 07:14:03;;;;;;;4.07;1.48;;;;;;;;;;4372954;32;20580;-79
2021/08/27 07:16:28;;;;;;;3.90;1.15;;;;;;;;;;4360962;32;20155;-80
2021/08/27 07:18:56;;;;;;;5.57;1.30;;;;;;;;;;4360402;32;20205;-80
2021/08/27 07:21:29;;;;;;;4.07;1.10;;;;;;;;;;4360733;32;20703;-80
2021/08/27 07:23:55;;;;;;;5.18;1.15;;;;;;;;;;4351549;33;20178;-78
2021/08/27 07:26:28;;;;;;;5.50;1.10;;;;;;;;;;4348294;33;20167;-80
2021/08/27 07:28:57;;;;;;;6.78;1.30;;;;;;;;;;4348462;33;20155;-80
2021/08/27 07:31:32;;;;;;;6.90;1.42;;;;;;;;;;4348229;32;20155;-80
2021/08/27 07:34:05;;;;;;;2.95;1.00;;;;;;;;;;4348138;33;20189;-79
2021/08/27 07:36:30;;;;;;;4.43;1.17;;;;;;;;;;4346280;33;20170;-78
2021/08/27 07:38:56;;;;;;;4.43;1.25;;;;;;;;;;4347913;33;20206;-80
2021/08/27 07:41:34;;;;;;;4.43;1.02;;;;;;;;;;4348003;33;20174;-79
2021/08/27 07:44:01;;;;;;;7.47;1.30;;;;;;;;;;4348125;33;20524;-79
2021/08/27 07:46:29;;;;;;;6.18;1.23;;;;;;;;;;4338630;33;20191;-79
2021/08/27 07:48:56;;;;;;;6.20;1.23;;;;;;;;;;4333265;33;20532;-79
2021/08/27 07:51:27;;;;;;;8.85;1.20;;;;;;;;;;4333302;33;20163;-80
2021/08/27 07:53:53;;;;;;;5.07;1.30;;;;;;;;;;4333482;33;20182;-80
2021/08/27 07:56:21;;;;;;;5.15;1.30;;;;;;;;;;4332864;33;20183;-80
2021/08/27 07:58:47;;;;;;;6.93;1.58;;;;;;;;;;4333265;33;20281;-79
2021/08/27 08:01:12;;;;;;;6.57;1.50;;;;;;;;;;4341480;33;20171;-79
2021/08/27 08:03:38;;;;;;;8.10;1.40;;;;;;;;;;4359851;32;20190;-79
2021/08/27 08:06:03;;;;;;;9.02;4.32;;;;;;;;;;4347608;33;20197;-81
2021/08/27 08:08:28;;;;;;;6.45;1.20;;;;;;;;;;4359725;33;20174;-77
2021/08/27 08:10:54;;;;;;;7.90;1.58;;;;;;;;;;4358542;32;20209;-79
2021/08/27 08:13:19;;;;;;;10.85;1.73;;;;;;;;;;4332638;33;20201;-81
2021/08/27 08:15:44;;;;;;;5.00;1.60;;;;;;;;;;4332625;33;20225;-80
2021/08/27 08:18:10;;;;;;;5.80;1.55;;;;;;;;;;4347090;33;20225;-80
2021/08/27 08:20:45;;;;;;;5.60;1.40;;;;;;;;;;4347114;33;20186;-81
2021/08/27 08:23:10;;;;;;;6.97;1.42;;;;;;;;;;4358218;32;20163;-80
2021/08/27 08:25:39;;;;;;;8.00;1.50;;;;;;;;;;4357228;32;20209;-80
2021/08/27 08:28:05;;;;;;;6.32;1.80;;;;;;;;;;4360629;33;20199;-76
2021/08/27 08:30:30;;;;;;;4.25;1.50;;;;;;;;;;4359478;33;20576;-80
2021/08/27 08:32:55;;;;;;;10.13;2.12;;;;;;;;;;4347069;33;20186;-80
2021/08/27 08:35:21;;;;;;;8.73;1.58;;;;;;;;;;4347357;33;20159;-80
2021/08/27 08:37:46;;;;;;;4.95;1.58;;;;;;;;;;4347506;33;20624;-80
2021/08/27 08:40:14;;;;;;;7.82;2.08;;;;;;;;;;4346654;33;20647;-81
2021/08/27 08:42:40;;;;;;;4.78;1.90;;;;;;;;;;4361116;32;20580;-80
2021/08/27 08:45:07;;;;;;;6.03;1.83;;;;;;;;;;4359349;32;20152;-80
2021/08/27 08:47:45;;;;;;;4.57;1.80;;;;;;;;;;4359785;32;20237;-81
2021/08/27 08:50:19;;;;;;;5.55;1.80;;;;;;;;;;4359161;32;20193;-80
2021/08/27 08:52:46;;;;;;;5.57;1.60;;;;;;;;;;4347105;33;20150;-80
2021/08/27 08:55:11;;;;;;;7.43;1.58;;;;;;;;;;4360274;32;20549;-80
2021/08/27 08:57:42;;;;;;;7.47;1.65;;;;;;;;;;4359109;33;20159;-80
2021/08/27 09:00:11;;;;;;;4.37;1.48;;;;;;;;;;4359793;32;20159;-82
2021/08/27 09:02:46;;;;;;;4.35;1.55;;;;;;;;;;4344353;33;20281;-79
2021/08/27 09:05:11;;;;;;;8.82;1.70;;;;;;;;;;4357147;32;20225;-80
2021/08/27 09:07:40;;;;;;;5.53;2.08;;;;;;;;;;4356674;32;20163;-80
2021/08/27 09:10:05;;;;;;;8.48;1.87;;;;;;;;;;4356219;33;20151;-80
2021/08/27 09:12:36;;;;;;;7.07;1.95;;;;;;;;;;4335025;33;20226;-80
2021/08/27 09:15:06;;;;;;;6.40;1.98;;;;;;;;;;4344293;33;20246;-80
2021/08/27 09:17:35;;;;;;;7.93;2.05;;;;;;;;;;4344203;33;20143;-80
2021/08/27 09:20:05;;;;;;;7.90;2.20;;;;;;;;;;4344307;33;20159;-82
2021/08/27 09:22:43;;;;;;;6.90;2.03;;;;;;;;;;4344155;33;20159;-81
2021/08/27 09:25:09;;;;;;;7.80;2.15;;;;;;;;;;4344013;33;20592;-81
2021/08/27 09:27:38;;;;;;;7.65;2.20;;;;;;;;;;4344310;32;20596;-81
2021/08/27 09:30:10;;;;;;;7.82;2.28;;;;;;;;;;4344175;33;20155;-80
2021/08/27 09:32:38;;;;;;;10.98;2.10;;;;;;;;;;4343732;33;20156;-82
2021/08/27 09:35:04;;;;;;;4.97;1.98;;;;;;;;;;4343961;33;20190;-80
2021/08/27 09:37:40;;;;;;;7.28;2.30;;;;;;;;;;4343387;33;20152;-81
2021/08/27 09:40:23;;;;;;;6.50;2.20;;;;;;;;;;4345325;33;20131;-80
2021/08/27 09:42:50;;;;;;;12.23;2.30;;;;;;;;;;4343679;33;20616;-82
2021/08/27 09:45:16;;;;;;;9.70;2.10;;;;;;;;;;4343756;33;20151;-81
2021/08/27 09:50:54;;;;;;;6.40;2.28;;;;;;;;;;4348870;33;20230;-79
2021/08/27 09:53:19;;;;;;;5.72;2.30;;;;;;;;;;4346081;33;20517;-82
2021/08/27 09:55:55;;;;;;;5.80;2.10;;;;;;;;;;4345255;33;20225;-82
2021/08/27 09:58:21;;;;;;;8.70;2.28;;;;;;;;;;4345422;33;20223;-83
2021/08/27 10:00:58;;;;;;;4.93;1.87;;;;;;;;;;4345818;33;20206;-76
2021/08/27 10:03:27;;;;;;;8.10;2.08;;;;;;;;;;4345192;33;20482;-81
2021/08/27 10:06:10;;;;;;;4.68;1.65;;;;;;;;;;4344587;33;20454;-81
2021/08/27 10:08:48;;;;;;;3.78;1.83;;;;;;;;;;4343821;33;20597;-80
2021/08/27 10:11:21;;;;;;;7.87;1.70;;;;;;;;;;4342857;33;20474;-80
2021/08/27 10:13:51;;;;;;;6.57;1.73;;;;;;;;;;4343708;33;20620;-81
2021/08/27 10:16:17;;;;;;;7.50;2.17;;;;;;;;;;4344052;33;20147;-82
2021/08/27 10:18:45;;;;;;;7.45;1.95;;;;;;;;;;4343741;33;20477;-81
2021/08/27 10:21:15;;;;;;;5.20;1.80;;;;;;;;;;4344721;33;20152;-80
2021/08/27 10:23:42;;;;;;;6.85;2.05;;;;;;;;;;4343652;33;20247;-82
2021/08/27 10:26:24;;;;;;;6.22;2.03;;;;;;;;;;4343592;33;20597;-81
2021/08/27 10:29:02;;;;;;;9.38;2.00;;;;;;;;;;4345602;33;20206;-81
2021/08/27 10:31:39;;;;;;;9.52;2.20;;;;;;;;;;4346681;33;20548;-81
2021/08/27 10:34:05;;;;;;;9.43;2.35;;;;;;;;;;4346846;33;20186;-82
2021/08/27 10:36:37;;;;;;;5.70;1.90;;;;;;;;;;4346166;33;20156;-81
2021/08/27 10:39:02;;;;;;;5.90;1.65;;;;;;;;;;4346659;33;20155;-80
2021/08/27 10:41:37;;;;;;;7.00;1.80;;;;;;;;;;4346721;33;20175;-81
2021/08/27 10:44:11;;;;;;;6.82;2.20;;;;;;;;;;4346169;33;20217;-82
2021/08/27 10:47:12;;;;;;;5.00;1.85;;;;;;;;;;4346651;33;20554;-81
2021/08/27 10:50:16;;;;;;;8.63;2.15;;;;;;;;;;4342079;33;20147;-82
2021/08/27 10:52:45;;;;;;;5.05;1.80;;;;;;;;;;4331666;33;20175;-80
2021/08/27 10:55:19;;;;;;;6.43;1.90;;;;;;;;;;4331222;33;20156;-82
2021/08/27 10:57:47;;;;;;;5.45;1.98;;;;;;;;;;4343603;32;20173;-81
2021/08/27 11:00:12;;;;;;;7.07;1.77;;;;;;;;;;4343699;33;20151;-80
2021/08/27 11:02:51;;;;;;;51.90;7.07;;;;;;;;;;4342630;32;20227;-81
2021/08/27 11:05:38;;;;;;;5.68;1.70;;;;;;;;;;4343386;33;20646;-81
2021/08/27 11:08:04;;;;;;;6.60;1.80;;;;;;;;;;4343186;33;20485;-81
2021/08/27 11:10:30;;;;;;;6.97;1.73;;;;;;;;;;4331816;33;20144;-81
2021/08/27 11:13:28;;;;;;;6.00;2.05;;;;;;;;;;4342231;33;20195;-82
2021/08/27 11:16:22;;;;;;;4.78;1.65;;;;;;;;;;4342878;33;20187;-81
2021/08/27 11:19:21;;;;;;;7.15;1.52;;;;;;;;;;4343573;33;20155;-81
2021/08/27 11:21:46;;;;;;;6.03;1.65;;;;;;;;;;4340811;33;20155;-81
2021/08/27 11:24:28;;;;;;;4.43;1.67;;;;;;;;;;4342305;33;20160;-80
2021/08/27 11:27:19;;;;;;;;;;;;;;;;;;;;;
2021/08/27 11:29:45;;;;;;;5.22;1.45;;;;;;;;;;4341954;33;20159;-82
2021/08/27 11:32:18;;;;;;;4.37;1.73;;;;;;;;;;4343250;33;20194;-81
2021/08/27 11:35:05;;;;;;;6.60;1.73;;;;;;;;;;4340240;33;20160;-82
2021/08/27 11:38:09;;;;;;;;;;;;;;;;;;;;;
2021/08/27 11:40:36;;;;;;;9.02;1.80;;;;;;;;;;4350210;33;20615;-82
2021/08/27 11:43:03;;;;;;;4.80;1.75;;;;;;;;;;4345146;33;20205;-81
2021/08/27 11:45:32;;;;;;;4.22;1.40;;;;;;;;;;4340213;33;20598;-81
2021/08/27 11:47:58;;;;;;;6.70;1.73;;;;;;;;;;4344207;33;20724;-82
2021/08/27 11:50:23;;;;;;;5.80;1.70;;;;;;;;;;4344193;33;20177;-83
2021/08/27 11:52:52;;;;;;;6.28;1.60;;;;;;;;;;4344531;33;20152;-81
2021/08/27 11:55:20;;;;;;;6.45;1.67;;;;;;;;;;4344656;33;20261;-81
2021/08/27 11:57:58;;;;;;;5.25;1.60;;;;;;;;;;4337482;33;20210;-80
2021/08/27 12:00:33;;;;;;;6.75;1.67;;;;;;;;;;4341958;33;20155;-80
2021/08/27 12:03:01;;;;;;;7.35;1.75;;;;;;;;;;4359153;32;20641;-80
2021/08/27 12:05:27;;;;;;;5.65;1.45;;;;;;;;;;4347471;33;20666;-81
2021/08/27 12:07:57;;;;;;;8.23;1.20;;;;;;;;;;4347439;33;20544;-82
2021/08/27 12:10:26;;;;;;;5.50;1.37;;;;;;;;;;4347588;33;20155;-81
2021/08/27 12:12:55;;;;;;;2.95;1.00;;;;;;;;;;4338209;33;20163;-81
2021/08/27 12:15:34;;;;;;;3.47;1.25;;;;;;;;;;4354512;32;20513;-80
2021/08/27 12:18:01;;;;;;;3.47;0.98;;;;;;;;;;4343515;33;20322;-80
2021/08/27 12:20:28;;;;;;;3.33;1.20;;;;;;;;;;4341602;33;20650;-82
2021/08/27 12:26:30;;;;;;;3.03;0.88;;;;;;;;;;4310913;33;20511;-80
2021/08/27 12:28:56;;;;;;;7.87;1.40;;;;;;;;;;4294024;33;20264;-81
2021/08/27 12:31:41;;;;;;;5.15;1.30;;;;;;;;;;4314513;33;20237;-81
2021/08/27 12:37:42;;;;;;;2.92;1.27;;;;;;;;;;4257243;33;20689;-80
2021/08/27 12:40:18;;;;;;;5.78;1.23;;;;;;;;;;4245176;33;20189;-79
2021/08/27 12:43:16;;;;;;;4.00;1.30;;;;;;;;;;4292909;33;20167;-81
2021/08/27 12:45:42;;;;;;;4.35;1.15;;;;;;;;;;4329495;33;20159;-80
2021/08/27 12:48:39;;;;;;;2.85;1.05;;;;;;;;;;4329326;33;20245;-79
2021/08/27 12:52:07;;;;;;;3.83;0.90;;;;;;;;;;4343723;33;20238;-80
2021/08/27 12:54:54;;;;;;;6.80;1.20;;;;;;;;;;4329287;33;20193;-81
2021/08/27 12:57:19;;;;;;;5.45;1.50;;;;;;;;;;4358096;32;20202;-80
2021/08/27 13:00:08;;;;;;;;;;;;;;;;;;;;;
2021/08/27 13:02:54;;;;;;;6.10;1.52;;;;;;;;;;4313672;33;20186;-80
2021/08/27 13:05:38;;;;;;;6.12;1.40;;;;;;;;;;4315193;33;20160;-81
2021/08/27 13:08:21;;;;;;;4.50;1.40;;;;;;;;;;4341050;33;20171;-80
2021/08/27 13:11:25;;;;;;;5.47;1.60;;;;;;;;;;4342461;33;20179;-79
2021/08/27 13:13:55;;;;;;;3.30;1.33;;;;;;;;;;4314686;33;20211;-80
2021/08/27 13:16:29;;;;;;;5.47;1.50;;;;;;;;;;4301842;33;20157;-80
2021/08/27 13:18:56;;;;;;;3.87;1.30;;;;;;;;;;4328124;33;20181;-81
2021/08/27 13:21:39;;;;;;;5.10;1.73;;;;;;;;;;4341495;33;20655;-80
2021/08/27 13:24:15;;;;;;;5.05;1.42;;;;;;;;;;4342118;33;20210;-78
2021/08/27 13:26:40;;;;;;;5.57;1.30;;;;;;;;;;4342112;33;20213;-80
2021/08/27 13:29:06;;;;;;;6.20;1.52;;;;;;;;;;4341743;33;20159;-82
2021/08/27 13:31:32;;;;;;;4.95;1.37;;;;;;;;;;4341200;33;20160;-80
2021/08/27 13:34:03;;;;;;;6.00;1.67;;;;;;;;;;4341484;33;20282;-80
2021/08/27 13:36:36;;;;;;;7.65;1.52;;;;;;;;;;4341711;33;20178;-80
2021/08/27 13:39:15;;;;;;;7.60;1.50;;;;;;;;;;4331112;33;20549;-80
2021/08/27 13:41:56;;;;;;;8.75;1.73;;;;;;;;;;4327985;33;20152;-81
2021/08/27 13:44:30;;;;;;;6.68;1.60;;;;;;;;;;4326492;33;20152;-80
2021/08/27 13:47:06;;;;;;;7.37;2.15;;;;;;;;;;4328954;33;20183;-80
2021/08/27 13:50:13;;;;;;;8.30;1.70;;;;;;;;;;4313730;33;20163;-81
2021/08/27 13:53:07;;;;;;;6.20;1.73;;;;;;;;;;4293781;33;20265;-82
2021/08/27 13:55:33;;;;;;;5.75;1.52;;;;;;;;;;4270622;33;20192;-81
2021/08/27 13:57:58;;;;;;;6.78;1.70;;;;;;;;;;4278359;33;20463;-81
2021/08/27 14:00:26;;;;;;;4.65;1.30;;;;;;;;;;4291169;33;20179;-80
2021/08/27 14:02:52;;;;;;;7.75;2.00;;;;;;;;;;4324649;33;20179;-81
2021/08/27 14:05:19;;;;;;;7.05;1.42;;;;;;;;;;4334989;33;20178;-81
2021/08/27 14:07:48;;;;;;;8.65;1.58;;;;;;;;;;4345928;33;20652;-81
2021/08/27 14:10:16;;;;;;;7.45;1.58;;;;;;;;;;4345649;33;20229;-81
2021/08/27 14:12:47;;;;;;;6.45;1.60;;;;;;;;;;4353720;33;20230;-80
2021/08/27 14:15:16;;;;;;;5.43;1.45;;;;;;;;;;4374246;32;20528;-80
2021/08/27 14:17:41;;;;;;;6.35;1.50;;;;;;;;;;4361699;32;20147;-80
2021/08/27 14:20:19;;;;;;;8.88;1.67;;;;;;;;;;4361532;32;20216;-81
2021/08/27 14:22:47;;;;;;;6.85;1.92;;;;;;;;;;4361101;32;20159;-79
2021/08/27 14:25:18;;;;;;;5.43;1.60;;;;;;;;;;4363071;32;20538;-81
2021/08/27 14:27:48;;;;;;;8.20;2.20;;;;;;;;;;4360988;33;20151;-80
2021/08/27 14:30:23;;;;;;;6.82;1.73;;;;;;;;;;4361533;32;20186;-81
2021/08/27 14:32:48;;;;;;;9.23;2.15;;;;;;;;;;4361157;32;20151;-80
2021/08/27 14:35:19;;;;;;;7.15;1.77;;;;;;;;;;4352890;32;20215;-81
2021/08/27 14:37:51;;;;;;;5.22;1.90;;;;;;;;;;4335656;33;20172;-81
2021/08/27 14:40:25;;;;;;;8.45;2.60;;;;;;;;;;4340141;33;20454;-80
2021/08/27 14:42:50;;;;;;;7.60;2.15;;;;;;;;;;4358488;33;20151;-80
2021/08/27 14:45:27;;;;;;;;;;;;;;;;;;;;;
2021/08/27 14:48:30;;;;;;;;;;;;;;;;;;;;;
2021/08/27 14:50:55;;;;;;;7.53;2.20;;;;;;;;;;4357212;33;20170;-81
2021/08/27 14:53:21;;;;;;;7.00;2.17;;;;;;;;;;4338590;33;20174;-81
2021/08/27 14:56:00;;;;;;;;;;;;;;;;;;;;;
2021/08/27 14:58:34;;;;;;;9.75;2.37;;;;;;;;;;4357060;33;20147;-81
2021/08/27 15:01:03;;;;;;;5.45;1.98;;;;;;;;;;4349155;32;20165;-82
2021/08/27 15:03:29;;;;;;;9.10;2.20;;;;;;;;;;4344859;32;20247;-82
2021/08/27 15:06:00;;;;;;;8.73;2.45;;;;;;;;;;4344111;33;20194;-80
2021/08/27 15:08:28;;;;;;;8.90;2.42;;;;;;;;;;4332742;33;20152;-81
2021/08/27 15:14:17;;;;;;;6.60;2.60;;;;;;;;;;4336260;32;20212;-79
2021/08/27 15:16:45;;;;;;;7.20;1.85;;;;;;;;;;4346856;33;20547;-82
2021/08/27 15:19:16;;;;;;;7.05;1.92;;;;;;;;;;4344935;33;20183;-80
2021/08/27 15:21:52;;;;;;;6.10;1.90;;;;;;;;;;4353134;32;20228;-81
2021/08/27 15:24:19;;;;;;;5.97;2.12;;;;;;;;;;4332867;33;20620;-81
2021/08/27 15:27:26;;;;;;;3.87;1.50;;;;;;;;;;4353410;33;20190;-81
2021/08/27 15:29:51;;;;;;;4.65;1.90;;;;;;;;;;4343130;33;20190;-81
2021/08/27 15:32:16;;;;;;;5.43;2.05;;;;;;;;;;4348710;33;20202;-80
2021/08/27 15:34:45;;;;;;;4.72;1.80;;;;;;;;;;4346326;33;20182;-81
2021/08/27 15:37:11;;;;;;;6.87;2.00;;;;;;;;;;4345240;33;20160;-81
2021/08/27 15:39:37;;;;;;;5.47;1.87;;;;;;;;;;4342151;33;20210;-82
2021/08/27 15:42:02;;;;;;;6.75;1.98;;;;;;;;;;4338687;33;20167;-81
2021/08/27 15:44:32;;;;;;;7.55;2.45;;;;;;;;;;4358244;32;20155;-81
2021/08/27 15:47:02;;;;;;;7.62;2.08;;;;;;;;;;4342917;33;20603;-81
2021/08/27 15:49:33;;;;;;;8.48;1.75;;;;;;;;;;4347078;33;20156;-81
2021/08/27 15:51:59;;;;;;;7.22;2.20;;;;;;;;;;4352406;32;20163;-80
2021/08/27 15:54:25;;;;;;;4.80;2.00;;;;;;;;;;4347499;33;20166;-81
2021/08/27 15:57:02;;;;;;;12.32;2.37;;;;;;;;;;4345294;33;20589;-81
2021/08/27 15:59:33;;;;;;;7.68;1.95;;;;;;;;;;4357035;33;20236;-82
2021/08/27 16:02:01;;;;;;;9.88;2.00;;;;;;;;;;4357686;32;20163;-79
2021/08/27 16:04:27;;;;;;;4.05;2.03;;;;;;;;;;4344976;33;20171;-81
2021/08/27 16:06:52;;;;;;;6.77;1.87;;;;;;;;;;4344895;33;20234;-82
2021/08/27 16:09:26;;;;;;;9.93;2.33;;;;;;;;;;4341660;33;20294;-81
2021/08/27 16:11:51;;;;;;;9.07;2.47;;;;;;;;;;4323402;33;20163;-81